createdAt,value
2018-06-21T00:00:24.896Z,99.90
2018-06-21T00:02:56.088Z,99.90
2018-06-21T00:05:26.990Z,99.90
2018-06-21T00:07:58.008Z,99.90
2018-06-21T00:10:28.402Z,99.90
2018-06-21T00:13:00.125Z,99.90
2018-06-21T00:15:30.711Z,99.90
2018-06-21T00:18:01.205Z,99.90
2018-06-21T00:20:32.081Z,99.90
2018-06-21T00:23:02.545Z,99.90
2018-06-21T00:25:32.887Z,99.90
2018-06-21T00:28:03.676Z,99.90
2018-06-21T00:30:34.213Z,99.90
2018-06-21T00:33:04.713Z,99.90
2018-06-21T00:35:34.952Z,99.90
2018-06-21T00:38:05.449Z,99.90
2018-06-21T00:40:35.882Z,99.90
2018-06-21T00:43:06.426Z,99.90
2018-06-21T00:45:37.002Z,99.90
2018-06-21T00:48:07.409Z,99.90
2018-06-21T00:50:38.234Z,99.90
2018-06-21T00:53:08.673Z,99.90
2018-06-21T00:55:49.855Z,99.90
2018-06-21T00:58:20.132Z,99.90
2018-06-21T01:00:50.900Z,99.90
2018-06-21T01:03:21.895Z,99.90
2018-06-21T01:05:52.329Z,99.90
2018-06-21T01:08:22.878Z,99.90
2018-06-21T01:10:53.519Z,99.90
2018-06-21T01:13:24.085Z,99.90
2018-06-21T01:15:54.749Z,99.90
2018-06-21T01:18:27.180Z,99.90
2018-06-21T01:20:58.101Z,99.90
2018-06-21T01:23:28.604Z,99.90
2018-06-21T01:25:59.423Z,99.90
2018-06-21T01:28:29.889Z,99.90
2018-06-21T01:31:00.689Z,99.90
2018-06-21T01:33:31.255Z,99.90
2018-06-21T01:36:02.141Z,99.90
2018-06-21T01:38:33.636Z,99.90
2018-06-21T01:41:04.174Z,99.90
2018-06-21T01:43:34.774Z,99.90
2018-06-21T01:46:05.332Z,99.90
2018-06-21T01:48:35.970Z,99.90
2018-06-21T01:51:07.089Z,99.90
2018-06-21T01:53:37.532Z,99.90
2018-06-21T01:56:08.427Z,99.90
2018-06-21T01:58:39.211Z,99.90
2018-06-21T02:01:10.076Z,99.90
2018-06-21T02:03:40.670Z,99.90
2018-06-21T02:06:11.282Z,99.90
2018-06-21T02:08:42.235Z,99.90
2018-06-21T02:11:13.246Z,99.90
2018-06-21T02:13:44.188Z,99.90
2018-06-21T02:16:14.852Z,99.90
2018-06-21T02:18:45.587Z,99.90
2018-06-21T02:21:16.009Z,99.90
2018-06-21T02:23:46.708Z,99.90
2018-06-21T02:26:17.123Z,99.90
2018-06-21T02:28:47.367Z,99.90
2018-06-21T02:31:17.986Z,99.90
2018-06-21T02:33:49.157Z,99.90
2018-06-21T02:36:20.967Z,99.90
2018-06-21T02:38:51.269Z,99.90
2018-06-21T02:41:22.012Z,99.90
2018-06-21T02:43:52.911Z,99.90
2018-06-21T02:46:23.443Z,99.90
2018-06-21T02:48:53.824Z,99.90
2018-06-21T02:51:24.399Z,99.90
2018-06-21T02:53:55.356Z,99.90
2018-06-21T02:56:25.824Z,99.90
2018-06-21T02:58:56.332Z,99.90
2018-06-21T03:01:26.717Z,99.90
2018-06-21T03:03:57.886Z,99.90
2018-06-21T03:06:28.008Z,99.90
2018-06-21T03:08:58.392Z,99.90
2018-06-21T03:11:29.164Z,99.90
2018-06-21T03:13:59.524Z,99.90
2018-06-21T03:16:29.896Z,99.90
2018-06-21T03:19:00.455Z,99.90
2018-06-21T03:21:31.065Z,99.90
2018-06-21T03:24:01.283Z,99.90
2018-06-21T03:26:31.763Z,99.90
2018-06-21T03:31:31.634Z,99.90
2018-06-21T03:34:02.078Z,99.90
2018-06-21T03:36:33.012Z,99.90
2018-06-21T03:39:03.441Z,99.90
2018-06-21T03:41:33.664Z,99.90
2018-06-21T03:44:04.114Z,99.90
2018-06-21T03:46:34.957Z,99.90
2018-06-21T03:49:05.710Z,99.90
2018-06-21T03:51:36.697Z,99.90
2018-06-21T03:54:08.340Z,99.90
2018-06-21T03:56:38.969Z,99.90
2018-06-21T03:59:09.547Z,99.90
2018-06-21T04:01:42.509Z,99.90
2018-06-21T04:04:13.392Z,99.90
2018-06-21T04:06:44.138Z,99.90
2018-06-21T04:09:14.991Z,99.90
2018-06-21T04:11:46.203Z,99.90
2018-06-21T04:14:17.073Z,99.90
2018-06-21T04:16:47.603Z,99.90
2018-06-21T04:19:18.676Z,99.90
2018-06-21T04:21:51.494Z,99.90
2018-06-21T04:24:22.294Z,99.90
2018-06-21T04:26:52.869Z,99.90
2018-06-21T04:29:23.482Z,99.90
2018-06-21T04:31:54.297Z,99.90
2018-06-21T04:34:27.814Z,99.90
2018-06-21T04:37:03.176Z,99.90
2018-06-21T04:39:34.797Z,99.90
2018-06-21T04:42:05.409Z,99.90
2018-06-21T04:44:36.418Z,99.90
2018-06-21T04:47:06.977Z,99.90
2018-06-21T04:49:37.984Z,99.90
2018-06-21T04:52:08.576Z,99.90
2018-06-21T04:54:39.399Z,99.90
2018-06-21T04:57:10.317Z,99.90
2018-06-21T04:59:40.822Z,99.90
2018-06-21T05:02:11.548Z,99.90
2018-06-21T05:04:42.080Z,99.90
2018-06-21T05:07:14.661Z,99.90
2018-06-21T05:09:45.629Z,99.90
2018-06-21T05:12:16.247Z,99.90
2018-06-21T05:14:48.618Z,99.90
2018-06-21T05:17:18.997Z,99.90
2018-06-21T05:19:49.806Z,99.90
2018-06-21T05:22:20.453Z,99.90
2018-06-21T05:24:51.219Z,99.90
2018-06-21T05:27:21.808Z,99.90
2018-06-21T05:32:22.887Z,99.90
2018-06-21T05:34:54.014Z,99.90
2018-06-21T05:37:25.153Z,99.90
2018-06-21T05:39:55.906Z,99.90
2018-06-21T05:42:26.595Z,99.90
2018-06-21T05:44:57.201Z,99.90
2018-06-21T05:47:27.710Z,99.90
2018-06-21T05:49:58.078Z,99.90
2018-06-21T05:52:29.060Z,99.90
2018-06-21T05:55:00.015Z,99.90
2018-06-21T05:57:30.974Z,99.90
2018-06-21T06:00:01.568Z,99.90
2018-06-21T06:02:32.568Z,99.90
2018-06-21T06:05:03.541Z,99.90
2018-06-21T06:07:34.214Z,99.90
2018-06-21T06:10:05.006Z,99.90
2018-06-21T06:12:35.785Z,99.90
2018-06-21T06:17:36.528Z,99.90
2018-06-21T06:20:07.161Z,99.90
2018-06-21T06:22:39.142Z,99.90
2018-06-21T06:25:10.381Z,99.90
2018-06-21T06:27:41.043Z,99.90
2018-06-21T06:30:12.981Z,99.90
2018-06-21T06:32:43.731Z,99.90
2018-06-21T06:35:14.314Z,99.90
2018-06-21T06:37:44.547Z,99.90
2018-06-21T06:40:15.029Z,99.90
2018-06-21T06:42:45.605Z,99.90
2018-06-21T06:45:15.910Z,99.90
2018-06-21T06:47:46.675Z,99.90
2018-06-21T06:52:47.597Z,99.90
2018-06-21T06:55:18.214Z,99.90
2018-06-21T06:57:48.823Z,99.90
2018-06-21T07:00:19.782Z,99.90
2018-06-21T07:02:50.559Z,99.90
2018-06-21T07:05:21.440Z,99.90
2018-06-21T07:10:23.087Z,99.90
2018-06-21T07:12:53.914Z,99.90
2018-06-21T07:15:24.994Z,99.90
2018-06-21T07:17:55.374Z,99.90
2018-06-21T07:20:25.785Z,99.90
2018-06-21T07:22:56.519Z,99.90
2018-06-21T07:25:27.410Z,99.90
2018-06-21T07:27:58.163Z,99.90
2018-06-21T07:30:28.594Z,99.90
2018-06-21T07:32:59.388Z,99.90
2018-06-21T07:35:30.402Z,99.90
2018-06-21T07:38:01.205Z,99.90
2018-06-21T07:40:32.006Z,99.90
2018-06-21T07:43:02.493Z,99.90
2018-06-21T07:45:32.718Z,99.90
2018-06-21T07:48:03.405Z,99.90
2018-06-21T07:50:33.983Z,99.90
2018-06-21T07:53:04.733Z,99.90
2018-06-21T07:55:35.137Z,99.90
2018-06-21T07:58:05.681Z,99.90
2018-06-21T08:00:36.731Z,99.90
2018-06-21T08:03:07.317Z,99.90
2018-06-21T08:05:38.068Z,99.90
2018-06-21T08:08:09.037Z,99.90
2018-06-21T08:10:39.889Z,99.90
2018-06-21T08:13:10.341Z,99.90
2018-06-21T08:15:41.210Z,99.90
2018-06-21T08:18:11.837Z,99.90
2018-06-21T08:20:42.437Z,99.90
2018-06-21T08:23:13.150Z,99.90
2018-06-21T08:25:43.675Z,99.90
2018-06-21T08:30:44.002Z,99.90
2018-06-21T08:33:14.609Z,99.90
2018-06-21T08:35:45.271Z,99.90
2018-06-21T08:38:16.235Z,99.90
2018-06-21T08:40:47.059Z,99.90
2018-06-21T08:43:17.658Z,99.90
2018-06-21T08:45:48.162Z,99.90
2018-06-21T08:48:18.700Z,99.90
2018-06-21T08:50:49.050Z,99.90
2018-06-21T08:53:20.044Z,99.90
2018-06-21T08:55:50.893Z,99.90
2018-06-21T08:58:21.611Z,99.90
2018-06-21T09:00:52.250Z,99.90
2018-06-21T09:03:23.398Z,99.90
2018-06-21T09:05:53.920Z,99.90
2018-06-21T09:08:24.664Z,99.90
2018-06-21T09:10:55.445Z,99.90
2018-06-21T09:13:35.716Z,99.90
2018-06-21T09:16:07.789Z,99.90
2018-06-21T09:18:38.737Z,99.90
2018-06-21T09:21:09.505Z,99.90
2018-06-21T09:23:40.415Z,99.90
2018-06-21T09:26:11.061Z,99.90
2018-06-21T09:28:41.790Z,99.90
2018-06-21T09:31:12.156Z,99.90
2018-06-21T09:33:42.834Z,99.90
2018-06-21T09:36:13.384Z,99.90
2018-06-21T09:38:50.200Z,99.90
2018-06-21T09:41:25.967Z,99.90
2018-06-21T09:44:04.256Z,99.90
2018-06-21T09:46:37.965Z,99.90
2018-06-21T09:49:08.433Z,99.90
2018-06-21T09:51:38.910Z,99.90
2018-06-21T09:56:39.491Z,99.90
2018-06-21T09:59:10.498Z,99.90
2018-06-21T10:01:41.197Z,99.90
2018-06-21T10:04:11.839Z,99.90
2018-06-21T10:06:43.016Z,99.90
2018-06-21T10:09:13.577Z,99.90
2018-06-21T10:11:44.334Z,99.90
2018-06-21T10:14:15.789Z,99.90
2018-06-21T10:16:46.490Z,99.90
2018-06-21T10:19:17.121Z,99.90
2018-06-21T10:21:48.242Z,99.90
2018-06-21T10:24:18.504Z,99.90
2018-06-21T10:26:49.277Z,99.90
2018-06-21T10:29:20.033Z,99.90
2018-06-21T10:31:50.819Z,99.90
2018-06-21T10:34:21.466Z,99.90
2018-06-21T10:36:52.314Z,99.90
2018-06-21T10:39:22.966Z,99.90
2018-06-21T10:41:53.590Z,99.90
2018-06-21T10:44:24.192Z,99.90
2018-06-21T10:46:55.012Z,99.90
2018-06-21T10:49:25.455Z,99.90
2018-06-21T10:51:56.422Z,99.90
2018-06-21T10:54:27.137Z,99.90
2018-06-21T10:56:57.607Z,99.90
2018-06-21T10:59:28.157Z,99.90
2018-06-21T11:01:59.208Z,99.90
2018-06-21T11:04:29.926Z,99.90
2018-06-21T11:07:00.490Z,99.80
2018-06-21T11:09:31.151Z,99.90
2018-06-21T11:12:01.861Z,98.70
2018-06-21T11:14:32.357Z,97.00
2018-06-21T11:17:03.016Z,95.80
2018-06-21T11:19:33.410Z,95.20
2018-06-21T11:22:04.029Z,94.20
2018-06-21T11:24:34.960Z,93.40
2018-06-21T11:27:05.703Z,94.50
2018-06-21T11:29:36.347Z,93.30
2018-06-21T11:32:06.884Z,92.30
2018-06-21T11:34:37.225Z,92.00
2018-06-21T11:37:08.321Z,92.70
2018-06-21T11:39:38.887Z,91.70
2018-06-21T11:44:39.891Z,91.60
2018-06-21T11:47:10.734Z,90.80
2018-06-21T11:49:41.450Z,90.90
2018-06-21T11:52:12.555Z,90.90
2018-06-21T11:54:43.670Z,91.20
2018-06-21T11:57:14.302Z,91.30
2018-06-21T11:59:45.173Z,91.30
2018-06-21T12:02:15.833Z,90.00
2018-06-21T12:04:47.091Z,89.50
2018-06-21T12:07:18.071Z,88.20
2018-06-21T12:09:49.111Z,86.70
2018-06-21T12:12:19.346Z,80.70
2018-06-21T12:14:50.114Z,81.70
2018-06-21T12:17:22.902Z,82.70
2018-06-21T12:19:53.433Z,82.60
2018-06-21T12:22:24.002Z,84.10
2018-06-21T12:24:55.560Z,83.80
2018-06-21T12:27:26.191Z,83.60
2018-06-21T12:29:56.922Z,82.80
2018-06-21T12:32:27.714Z,84.70
2018-06-21T12:34:58.225Z,83.90
2018-06-21T12:37:28.976Z,84.80
2018-06-21T12:42:31.263Z,91.50
2018-06-21T12:45:01.665Z,92.80
2018-06-21T12:47:32.399Z,92.80
2018-06-21T12:50:03.209Z,93.00
2018-06-21T12:52:34.065Z,92.50
2018-06-21T12:55:04.906Z,92.20
2018-06-21T12:57:36.022Z,92.10
2018-06-21T13:00:06.939Z,92.00
2018-06-21T13:02:37.601Z,91.00
2018-06-21T13:05:08.513Z,90.40
2018-06-21T13:07:39.490Z,90.40
2018-06-21T13:10:21.137Z,88.30
2018-06-21T13:13:08.674Z,88.80
2018-06-21T13:15:39.648Z,90.40
2018-06-21T13:18:10.465Z,88.60
2018-06-21T13:20:41.072Z,85.30
2018-06-21T13:23:11.813Z,85.20
2018-06-21T13:25:42.634Z,86.20
2018-06-21T13:28:13.533Z,87.90
2018-06-21T13:30:44.158Z,87.00
2018-06-21T13:33:14.449Z,84.20
2018-06-21T13:35:46.165Z,85.00
2018-06-21T13:38:16.462Z,86.60
2018-06-21T13:40:47.269Z,88.90
2018-06-21T13:43:17.879Z,88.60
2018-06-21T13:45:48.684Z,86.90
2018-06-21T13:48:21.009Z,87.10
2018-06-21T13:50:51.462Z,86.90
2018-06-21T13:53:22.218Z,86.40
2018-06-21T13:55:52.857Z,86.40
2018-06-21T13:58:23.800Z,87.00
2018-06-21T14:00:55.064Z,90.00
2018-06-21T14:03:25.699Z,93.90
2018-06-21T14:05:56.514Z,96.30
2018-06-21T14:08:27.252Z,94.70
2018-06-21T14:10:58.753Z,93.20
2018-06-21T14:13:29.684Z,92.60
2018-06-21T14:16:00.326Z,92.80
2018-06-21T14:18:32.513Z,93.00
2018-06-21T14:21:03.143Z,93.10
2018-06-21T14:23:33.704Z,93.90
2018-06-21T14:26:05.154Z,93.40
2018-06-21T14:28:36.080Z,93.80
2018-06-21T14:31:06.605Z,93.40
2018-06-21T14:33:37.293Z,92.90
2018-06-21T14:36:08.022Z,93.60
2018-06-21T14:38:38.814Z,93.80
2018-06-21T14:41:09.510Z,92.20
2018-06-21T14:43:40.350Z,91.90
2018-06-21T14:46:10.798Z,92.20
2018-06-21T14:48:41.432Z,91.80
2018-06-21T14:51:12.087Z,91.00
2018-06-21T14:53:42.697Z,91.10
2018-06-21T14:56:13.663Z,91.60
2018-06-21T14:58:45.327Z,91.90
2018-06-21T15:01:15.901Z,92.50
2018-06-21T15:03:46.630Z,93.30
2018-06-21T15:06:17.353Z,95.90
2018-06-21T15:08:48.608Z,97.50
2018-06-21T15:11:19.451Z,98.60
2018-06-21T15:13:51.683Z,99.80
2018-06-21T15:16:23.428Z,99.90
2018-06-21T15:18:54.170Z,99.90
2018-06-21T15:21:24.799Z,99.90
2018-06-21T15:23:55.510Z,99.10
2018-06-21T15:26:26.425Z,99.60
2018-06-21T15:28:57.066Z,99.10
2018-06-21T15:31:27.941Z,99.10
2018-06-21T15:33:58.872Z,99.70
2018-06-21T15:36:29.509Z,98.80
2018-06-21T15:39:00.554Z,97.40
2018-06-21T15:41:33.133Z,96.70
2018-06-21T15:44:03.834Z,96.80
2018-06-21T15:46:34.421Z,97.10
2018-06-21T15:49:05.229Z,97.10
2018-06-21T15:51:35.940Z,97.40
2018-06-21T15:54:08.646Z,97.40
2018-06-21T15:56:40.258Z,97.40
2018-06-21T15:59:11.344Z,98.20
2018-06-21T16:01:41.765Z,98.60
2018-06-21T16:04:12.380Z,98.90
2018-06-21T16:06:42.898Z,99.90
2018-06-21T16:09:13.718Z,99.90
2018-06-21T16:11:45.661Z,99.90
2018-06-21T16:14:19.470Z,99.50
2018-06-21T16:16:50.050Z,97.60
2018-06-21T16:19:21.237Z,97.20
2018-06-21T16:21:52.353Z,96.80
2018-06-21T16:24:23.368Z,95.50
2018-06-21T16:26:54.270Z,95.90
2018-06-21T16:29:24.838Z,94.90
2018-06-21T16:31:55.650Z,94.60
2018-06-21T16:34:26.657Z,94.90
2018-06-21T16:36:57.255Z,95.40
2018-06-21T16:39:27.633Z,96.00
2018-06-21T16:41:58.390Z,96.40
2018-06-21T16:44:28.978Z,96.70
2018-06-21T16:46:59.858Z,96.60
2018-06-21T16:49:30.474Z,97.20
2018-06-21T16:52:01.009Z,98.00
2018-06-21T16:54:32.382Z,98.20
2018-06-21T16:57:04.367Z,98.50
2018-06-21T16:59:35.500Z,97.90
2018-06-21T17:02:06.449Z,97.90
2018-06-21T17:04:36.905Z,96.80
2018-06-21T17:07:07.703Z,96.70
2018-06-21T17:09:38.493Z,96.50
2018-06-21T17:12:10.580Z,95.80
2018-06-21T17:14:41.289Z,96.30
2018-06-21T17:17:12.285Z,95.80
2018-06-21T17:19:42.761Z,95.00
2018-06-21T17:22:13.483Z,95.00
2018-06-21T17:24:44.874Z,95.20
2018-06-21T17:27:15.420Z,95.30
2018-06-21T17:29:46.109Z,95.70
2018-06-21T17:32:16.735Z,95.90
2018-06-21T17:37:17.263Z,96.20
2018-06-21T17:39:48.676Z,96.40
2018-06-21T17:42:19.696Z,96.70
2018-06-21T17:44:50.325Z,96.30
2018-06-21T17:49:51.557Z,96.90
2018-06-21T17:52:23.623Z,97.30
2018-06-21T17:54:54.587Z,97.70
2018-06-21T17:57:25.166Z,97.80
2018-06-21T17:59:55.860Z,98.60
2018-06-21T18:02:26.501Z,99.30
2018-06-21T18:04:57.124Z,99.30
2018-06-21T18:07:27.840Z,99.60
2018-06-21T18:09:58.449Z,99.90
2018-06-21T18:12:30.778Z,99.90
2018-06-21T18:15:01.507Z,99.90
2018-06-21T18:17:32.042Z,99.90
2018-06-21T18:20:03.094Z,99.90
2018-06-21T18:22:34.197Z,99.90
2018-06-21T18:25:05.217Z,99.90
2018-06-21T18:27:37.475Z,99.90
2018-06-21T18:30:08.726Z,99.90
2018-06-21T18:32:40.434Z,99.90
2018-06-21T18:35:12.226Z,99.90
2018-06-21T18:37:43.950Z,99.90
2018-06-21T18:40:16.133Z,99.90
2018-06-21T18:42:47.898Z,99.90
2018-06-21T18:47:52.018Z,99.90
2018-06-21T18:50:30.236Z,99.90
2018-06-21T18:53:01.570Z,99.90
2018-06-21T18:55:33.960Z,99.90
2018-06-21T18:58:05.857Z,99.90
2018-06-21T19:00:37.490Z,99.90
2018-06-21T19:05:41.611Z,99.90
2018-06-21T19:08:18.444Z,99.90
2018-06-21T19:10:55.518Z,99.90
2018-06-21T19:13:26.303Z,99.90
2018-06-21T19:15:59.282Z,99.90
2018-06-21T19:18:30.364Z,99.90
2018-06-21T19:21:01.878Z,99.90
2018-06-21T19:23:32.645Z,99.90
2018-06-21T19:26:06.338Z,99.90
2018-06-21T19:28:38.551Z,99.90
2018-06-21T19:31:09.919Z,99.90
2018-06-21T19:33:40.589Z,99.90
2018-06-21T19:36:11.179Z,99.90
2018-06-21T19:38:41.829Z,99.90
2018-06-21T19:41:12.717Z,99.90
2018-06-21T19:43:43.338Z,99.90
2018-06-21T19:46:14.223Z,99.90
2018-06-21T19:48:45.053Z,99.90
2018-06-21T19:51:15.481Z,99.90
2018-06-21T19:53:46.246Z,99.90
2018-06-21T19:56:16.904Z,99.90
2018-06-21T20:01:18.213Z,99.90
2018-06-21T20:03:48.719Z,99.90
2018-06-21T20:06:19.761Z,99.90
2018-06-21T20:08:50.237Z,99.90
2018-06-21T20:11:37.308Z,99.90
2018-06-21T20:14:07.931Z,99.90
2018-06-21T20:16:38.849Z,99.90
2018-06-21T20:19:18.497Z,99.90
2018-06-21T20:21:49.225Z,99.90
2018-06-21T20:24:21.219Z,99.90
2018-06-21T20:26:52.492Z,99.90
2018-06-21T20:29:23.400Z,99.90
2018-06-21T20:31:54.046Z,99.90
2018-06-21T20:34:24.846Z,99.90
2018-06-21T20:36:55.617Z,99.90
2018-06-21T20:39:26.214Z,99.90
2018-06-21T20:41:56.978Z,99.90
2018-06-21T20:44:27.713Z,99.90
2018-06-21T20:46:58.361Z,99.90
2018-06-21T20:49:29.041Z,99.90
2018-06-21T20:54:47.287Z,99.90
2018-06-21T20:57:18.106Z,99.90
2018-06-21T20:59:49.342Z,99.90
2018-06-21T21:02:19.914Z,99.90
2018-06-21T21:05:12.639Z,99.90
2018-06-21T21:07:43.973Z,99.90
2018-06-21T21:10:15.893Z,99.90
2018-06-21T21:12:46.853Z,99.90
2018-06-21T21:15:17.542Z,99.90
2018-06-21T21:17:48.352Z,99.90
2018-06-21T21:20:18.905Z,99.90
2018-06-21T21:22:49.976Z,99.90
2018-06-21T21:25:20.702Z,99.90
2018-06-21T21:27:51.625Z,99.90
2018-06-21T21:30:22.090Z,99.90
2018-06-21T21:32:52.889Z,99.90
2018-06-21T21:35:36.440Z,99.90
2018-06-21T21:38:07.978Z,99.90
2018-06-21T21:40:39.010Z,99.90
2018-06-21T21:43:10.064Z,99.90
2018-06-21T21:45:41.009Z,99.90
2018-06-21T21:48:11.450Z,99.90
2018-06-21T21:50:42.195Z,99.90
2018-06-21T21:53:13.078Z,99.90
2018-06-21T21:55:43.714Z,99.90
2018-06-21T21:58:14.952Z,99.90
2018-06-21T22:00:48.640Z,99.90
2018-06-21T22:03:19.269Z,99.90
2018-06-21T22:05:55.021Z,99.90
2018-06-21T22:08:25.869Z,99.90
2018-06-21T22:10:56.345Z,99.90
2018-06-21T22:13:27.062Z,99.90
2018-06-21T22:15:58.114Z,99.90
2018-06-21T22:18:29.723Z,99.90
2018-06-21T22:21:00.366Z,99.90
2018-06-21T22:23:31.374Z,99.90
2018-06-21T22:26:02.070Z,99.90
2018-06-21T22:28:32.661Z,99.90
2018-06-21T22:31:03.856Z,99.90
2018-06-21T22:33:34.969Z,99.90
2018-06-21T22:36:05.849Z,99.90
2018-06-21T22:38:37.298Z,99.90
2018-06-21T22:41:08.583Z,99.90
2018-06-21T22:43:39.500Z,99.90
2018-06-21T22:46:11.069Z,99.90
2018-06-21T22:48:42.314Z,99.90
2018-06-21T22:51:13.245Z,99.90
2018-06-21T22:53:44.293Z,99.90
2018-06-21T22:56:14.832Z,99.90
2018-06-21T22:58:45.545Z,99.90
2018-06-21T23:01:17.277Z,99.90
2018-06-21T23:03:48.073Z,99.90
2018-06-21T23:06:19.381Z,99.90
2018-06-21T23:08:50.067Z,99.90
2018-06-21T23:11:21.078Z,99.90
2018-06-21T23:13:53.619Z,99.90
2018-06-21T23:16:24.697Z,99.90
2018-06-21T23:19:06.257Z,99.90
2018-06-21T23:21:37.730Z,99.90
2018-06-21T23:24:08.590Z,99.90
2018-06-21T23:26:39.765Z,99.90
2018-06-21T23:29:10.744Z,99.90
2018-06-21T23:31:41.449Z,99.90
2018-06-21T23:34:12.074Z,99.90
2018-06-21T23:36:43.208Z,99.90
2018-06-21T23:39:13.738Z,99.90
2018-06-21T23:41:44.914Z,99.90
2018-06-21T23:44:15.862Z,99.90
2018-06-21T23:46:48.642Z,99.90
2018-06-21T23:49:20.175Z,99.90
2018-06-21T23:51:50.680Z,99.90
2018-06-21T23:54:21.429Z,99.90
2018-06-21T23:56:52.346Z,99.90
2018-06-21T23:59:23.096Z,99.90
